createdAt,value
2023-01-27T00:00:51.744Z,2.47
2023-01-27T00:03:19.576Z,2.40
2023-01-27T00:05:47.198Z,2.34
2023-01-27T00:08:14.713Z,2.40
2023-01-27T00:10:43.641Z,2.34
2023-01-27T00:13:28.062Z,2.37
2023-01-27T00:15:56.037Z,2.36
2023-01-27T00:18:24.152Z,2.37
2023-01-27T00:21:10.484Z,2.36
2023-01-27T00:23:56.732Z,2.19
2023-01-27T00:26:25.586Z,2.03
2023-01-27T00:28:53.107Z,1.96
2023-01-27T00:31:39.137Z,2.07
2023-01-27T00:34:09.894Z,2.01
2023-01-27T00:36:38.729Z,2.02
2023-01-27T00:39:06.955Z,1.98
2023-01-27T00:41:36.279Z,1.92
2023-01-27T00:44:05.910Z,1.59
2023-01-27T00:46:33.732Z,1.78
2023-01-27T00:49:01.463Z,1.92
2023-01-27T00:51:29.046Z,1.96
2023-01-27T00:53:56.454Z,2.01
2023-01-27T00:56:23.785Z,1.82
2023-01-27T00:58:52.499Z,2.02
2023-01-27T01:01:19.824Z,2.06
2023-01-27T01:03:47.415Z,1.99
2023-01-27T01:06:18.254Z,2.01
2023-01-27T01:08:45.720Z,2.07
2023-01-27T01:11:14.949Z,2.03
2023-01-27T01:13:43.274Z,1.99
2023-01-27T01:16:14.859Z,2.01
2023-01-27T01:18:43.564Z,1.96
2023-01-27T01:21:12.361Z,1.95
2023-01-27T01:23:41.169Z,1.85
2023-01-27T01:26:10.970Z,1.79
2023-01-27T01:28:39.983Z,1.91
2023-01-27T01:31:09.478Z,1.93
2023-01-27T01:33:38.835Z,1.99
2023-01-27T01:36:07.968Z,1.87
2023-01-27T01:38:35.637Z,2.02
2023-01-27T01:41:03.128Z,2.05
2023-01-27T01:43:30.565Z,2.06
2023-01-27T01:45:58.993Z,2.19
2023-01-27T01:48:36.553Z,2.07
2023-01-27T01:51:10.852Z,2.06
2023-01-27T01:53:43.959Z,2.14
2023-01-27T01:56:16.906Z,1.98
2023-01-27T01:58:45.618Z,2.05
2023-01-27T02:01:14.889Z,1.96
2023-01-27T02:03:44.320Z,2.14
2023-01-27T02:06:13.726Z,2.22
2023-01-27T02:08:44.345Z,1.95
2023-01-27T02:11:12.076Z,1.82
2023-01-27T02:13:40.397Z,1.79
2023-01-27T02:16:09.869Z,1.85
2023-01-27T02:18:38.327Z,1.87
2023-01-27T02:21:06.998Z,1.87
2023-01-27T02:23:57.107Z,2.24
2023-01-27T02:26:28.818Z,2.14
2023-01-27T02:28:57.794Z,2.10
2023-01-27T02:31:25.607Z,1.85
2023-01-27T02:33:57.853Z,1.76
2023-01-27T02:36:28.417Z,1.65
2023-01-27T02:38:58.676Z,1.65
2023-01-27T02:41:32.571Z,1.91
2023-01-27T02:44:00.329Z,2.05
2023-01-27T02:46:27.862Z,1.82
2023-01-27T02:48:55.456Z,1.92
2023-01-27T02:51:22.990Z,1.99
2023-01-27T02:53:50.312Z,1.66
2023-01-27T02:56:17.836Z,2.19
2023-01-27T02:58:46.829Z,2.30
2023-01-27T03:01:14.122Z,2.40
2023-01-27T03:03:44.426Z,2.44
2023-01-27T03:06:11.989Z,2.51
2023-01-27T03:08:39.366Z,2.37
2023-01-27T03:11:07.459Z,2.23
2023-01-27T03:13:37.080Z,2.06
2023-01-27T03:16:25.802Z,2.03
2023-01-27T03:18:53.896Z,1.95
2023-01-27T03:21:21.737Z,2.02
2023-01-27T03:23:49.377Z,2.12
2023-01-27T03:26:17.077Z,1.95
2023-01-27T03:29:04.228Z,1.85
2023-01-27T03:31:33.074Z,1.78
2023-01-27T03:34:00.580Z,1.66
2023-01-27T03:36:46.563Z,1.52
2023-01-27T03:39:32.870Z,1.43
2023-01-27T03:42:18.727Z,1.37
2023-01-27T03:45:04.524Z,1.34
2023-01-27T03:47:33.436Z,1.28
2023-01-27T03:50:00.852Z,1.34
2023-01-27T03:52:28.322Z,1.15
2023-01-27T03:54:55.573Z,1.23
2023-01-27T03:57:22.984Z,1.20
2023-01-27T03:59:50.675Z,1.13
2023-01-27T04:02:36.892Z,1.15
2023-01-27T04:05:25.232Z,1.43
2023-01-27T04:07:52.650Z,1.06
2023-01-27T04:10:20.159Z,1.17
2023-01-27T04:12:48.715Z,1.28
2023-01-27T04:15:17.648Z,1.47
2023-01-27T04:17:45.047Z,1.50
2023-01-27T04:20:15.358Z,1.62
2023-01-27T04:22:42.720Z,1.40
2023-01-27T04:25:12.273Z,1.33
2023-01-27T04:27:40.513Z,1.31
2023-01-27T04:30:10.143Z,1.17
2023-01-27T04:32:37.406Z,1.31
2023-01-27T04:35:05.447Z,1.58
2023-01-27T04:37:34.738Z,1.76
2023-01-27T04:40:05.390Z,1.72
2023-01-27T04:42:32.966Z,1.34
2023-01-27T04:45:00.874Z,1.56
2023-01-27T04:47:28.146Z,1.72
2023-01-27T04:49:56.580Z,1.31
2023-01-27T04:52:24.081Z,1.45
2023-01-27T04:54:52.708Z,1.69
2023-01-27T04:57:20.499Z,1.12
2023-01-27T04:59:47.832Z,1.10
2023-01-27T05:02:15.530Z,1.43
2023-01-27T05:04:42.875Z,1.43
2023-01-27T05:07:10.590Z,1.19
2023-01-27T05:09:37.948Z,1.48
2023-01-27T05:12:07.014Z,1.68
2023-01-27T05:14:34.427Z,1.12
2023-01-27T05:17:01.842Z,1.03
2023-01-27T05:19:29.394Z,1.10
2023-01-27T05:21:57.099Z,1.15
2023-01-27T05:24:24.524Z,1.12
2023-01-27T05:26:51.943Z,0.97
2023-01-27T05:29:20.816Z,0.95
2023-01-27T05:31:48.349Z,1.04
2023-01-27T05:34:16.949Z,1.47
2023-01-27T05:36:44.476Z,1.50
2023-01-27T05:39:11.972Z,1.43
2023-01-27T05:41:39.648Z,1.55
2023-01-27T05:44:07.129Z,1.62
2023-01-27T05:46:39.842Z,1.65
2023-01-27T05:49:07.212Z,1.55
2023-01-27T05:51:36.899Z,1.45
2023-01-27T05:54:04.528Z,1.54
2023-01-27T05:56:32.202Z,1.64
2023-01-27T05:58:59.917Z,1.56
2023-01-27T06:01:29.732Z,1.48
2023-01-27T06:03:59.206Z,1.61
2023-01-27T06:06:28.489Z,1.66
2023-01-27T06:08:55.748Z,2.01
2023-01-27T06:11:24.477Z,2.13
2023-01-27T06:13:53.089Z,2.30
2023-01-27T06:16:22.352Z,2.27
2023-01-27T06:18:50.702Z,2.31
2023-01-27T06:21:20.763Z,2.10
2023-01-27T06:23:49.013Z,2.13
2023-01-27T06:26:17.788Z,2.01
2023-01-27T06:28:46.010Z,1.89
2023-01-27T06:31:15.386Z,1.85
2023-01-27T06:33:43.189Z,2.17
2023-01-27T06:36:13.786Z,2.23
2023-01-27T06:38:44.434Z,2.10
2023-01-27T06:41:12.225Z,1.98
2023-01-27T06:43:39.701Z,2.09
2023-01-27T06:46:07.305Z,2.16
2023-01-27T06:48:34.896Z,2.12
2023-01-27T06:51:02.592Z,2.19
2023-01-27T06:53:31.572Z,2.13
2023-01-27T06:56:01.857Z,2.10
2023-01-27T06:58:29.599Z,2.17
2023-01-27T07:00:57.574Z,1.96
2023-01-27T07:03:25.464Z,2.01
2023-01-27T07:05:53.571Z,1.96
2023-01-27T07:08:21.187Z,1.87
2023-01-27T07:10:48.764Z,1.83
2023-01-27T07:13:18.861Z,1.78
2023-01-27T07:15:47.921Z,1.92
2023-01-27T07:18:15.283Z,1.81
2023-01-27T07:20:42.987Z,1.91
2023-01-27T07:23:10.911Z,1.74
2023-01-27T07:25:39.305Z,1.71
2023-01-27T07:28:07.166Z,1.91
2023-01-27T07:30:36.103Z,1.96
2023-01-27T07:33:04.693Z,2.03
2023-01-27T07:35:32.303Z,2.01
2023-01-27T07:38:00.132Z,1.93
2023-01-27T07:40:29.974Z,2.06
2023-01-27T07:42:59.398Z,2.12
2023-01-27T07:45:27.762Z,2.07
2023-01-27T07:48:00.560Z,2.19
2023-01-27T07:50:28.171Z,1.96
2023-01-27T07:52:58.212Z,2.26
2023-01-27T07:55:25.707Z,2.29
2023-01-27T07:57:53.822Z,2.24
2023-01-27T08:00:23.263Z,2.26
2023-01-27T08:03:06.378Z,2.24
2023-01-27T08:05:40.653Z,2.38
2023-01-27T08:08:08.377Z,2.33
2023-01-27T08:11:10.618Z,2.10
2023-01-27T08:14:05.469Z,2.13
2023-01-27T08:16:33.058Z,2.31
2023-01-27T08:19:11.192Z,2.14
2023-01-27T08:21:42.513Z,2.06
2023-01-27T08:24:15.589Z,2.12
2023-01-27T08:26:48.310Z,2.17
2023-01-27T08:29:16.960Z,2.27
2023-01-27T08:31:44.591Z,2.36
2023-01-27T08:34:22.790Z,2.34
2023-01-27T08:36:50.411Z,2.36
2023-01-27T08:39:17.707Z,2.17
2023-01-27T08:41:45.143Z,2.29
2023-01-27T08:44:12.557Z,2.33
2023-01-27T08:46:42.101Z,2.36
2023-01-27T08:49:09.651Z,2.38
2023-01-27T08:51:38.479Z,2.29
2023-01-27T08:54:09.031Z,2.19
2023-01-27T08:56:36.528Z,2.22
2023-01-27T08:59:04.142Z,2.24
2023-01-27T09:01:32.899Z,2.19
2023-01-27T09:04:00.868Z,2.14
2023-01-27T09:06:28.540Z,2.20
2023-01-27T09:09:12.458Z,2.23
2023-01-27T09:11:41.817Z,2.26
2023-01-27T09:14:11.715Z,2.19
2023-01-27T09:16:39.216Z,2.26
2023-01-27T09:19:08.759Z,2.34
2023-01-27T09:24:22.134Z,2.19
2023-01-27T09:26:49.893Z,2.24
2023-01-27T09:29:17.645Z,2.22
2023-01-27T09:31:45.290Z,2.34
2023-01-27T09:34:12.694Z,2.26
2023-01-27T09:36:47.743Z,2.30
2023-01-27T09:39:18.259Z,2.36
2023-01-27T09:42:04.172Z,2.38
2023-01-27T09:44:55.060Z,2.30
2023-01-27T09:47:38.582Z,2.40
2023-01-27T09:50:20.562Z,2.33
2023-01-27T09:53:24.851Z,2.31
2023-01-27T09:56:12.221Z,2.40
2023-01-27T09:58:55.977Z,2.47
2023-01-27T10:01:50.665Z,2.30
2023-01-27T10:05:09.339Z,2.54
2023-01-27T10:08:09.382Z,2.61
2023-01-27T10:10:53.010Z,2.61
2023-01-27T10:13:32.409Z,2.61
2023-01-27T10:16:30.395Z,2.75
2023-01-27T10:19:21.291Z,2.52
2023-01-27T10:22:01.073Z,2.57
2023-01-27T10:24:41.758Z,2.44
2023-01-27T10:27:20.221Z,2.45
2023-01-27T10:29:57.005Z,2.33
2023-01-27T10:32:30.463Z,2.41
2023-01-27T10:35:10.188Z,2.54
2023-01-27T10:37:48.340Z,2.61
2023-01-27T10:40:25.453Z,2.64
2023-01-27T10:43:02.712Z,2.55
2023-01-27T10:45:37.860Z,2.72
2023-01-27T10:48:21.424Z,2.61
2023-01-27T10:50:54.506Z,2.44
2023-01-27T10:53:28.453Z,2.30
2023-01-27T10:56:16.371Z,2.33
2023-01-27T10:58:51.727Z,2.30
2023-01-27T11:01:26.105Z,2.31
2023-01-27T11:04:04.707Z,2.17
2023-01-27T11:06:38.067Z,2.31
2023-01-27T11:09:13.801Z,2.41
2023-01-27T11:11:46.577Z,2.31
2023-01-27T11:14:24.940Z,2.10
2023-01-27T11:16:54.488Z,2.38
2023-01-27T11:19:42.960Z,2.41
2023-01-27T11:22:18.816Z,2.34
2023-01-27T11:24:50.028Z,2.24
2023-01-27T11:27:27.287Z,2.20
2023-01-27T11:29:59.744Z,2.38
2023-01-27T11:32:42.122Z,2.27
2023-01-27T11:35:13.250Z,2.24
2023-01-27T11:37:42.808Z,2.34
2023-01-27T11:40:17.367Z,2.33
2023-01-27T11:42:46.323Z,2.27
2023-01-27T11:45:16.828Z,2.05
2023-01-27T11:47:46.214Z,2.10
2023-01-27T11:50:17.760Z,2.26
2023-01-27T11:52:48.095Z,2.31
2023-01-27T11:55:18.488Z,2.19
2023-01-27T11:57:49.427Z,2.19
2023-01-27T12:00:24.383Z,2.09
2023-01-27T12:02:59.663Z,2.14
2023-01-27T12:05:31.959Z,2.24
2023-01-27T12:08:01.255Z,2.20
2023-01-27T12:10:32.089Z,2.20
2023-01-27T12:13:03.697Z,2.30
2023-01-27T12:15:33.008Z,2.38
2023-01-27T12:18:03.554Z,2.36
2023-01-27T12:20:36.528Z,2.17
2023-01-27T12:23:16.584Z,2.33
2023-01-27T12:25:48.385Z,2.40
2023-01-27T12:28:36.767Z,2.40
2023-01-27T12:31:08.539Z,2.36
2023-01-27T12:33:38.473Z,2.41
2023-01-27T12:36:14.995Z,2.29
2023-01-27T12:38:47.295Z,2.36
2023-01-27T12:41:22.871Z,2.33
2023-01-27T12:43:52.416Z,2.29
2023-01-27T12:46:23.626Z,2.27
2023-01-27T12:48:53.249Z,2.19
2023-01-27T12:51:36.118Z,2.24
2023-01-27T12:54:17.277Z,2.23
2023-01-27T12:56:46.619Z,2.20
2023-01-27T12:59:18.094Z,2.16
2023-01-27T13:01:58.769Z,2.17
2023-01-27T13:04:27.269Z,2.13
2023-01-27T13:06:58.254Z,2.17
2023-01-27T13:09:29.289Z,2.24
2023-01-27T13:11:59.310Z,2.36
2023-01-27T13:14:30.519Z,2.14
2023-01-27T13:16:59.246Z,2.22
2023-01-27T13:19:35.911Z,2.16
2023-01-27T13:22:06.204Z,2.09
2023-01-27T13:24:39.613Z,2.17
2023-01-27T13:27:14.745Z,2.24
2023-01-27T13:29:50.043Z,2.29
2023-01-27T13:32:23.833Z,2.23
2023-01-27T13:34:58.537Z,2.20
2023-01-27T13:37:35.502Z,2.20
2023-01-27T13:40:14.392Z,2.05
2023-01-27T13:42:48.073Z,1.98
2023-01-27T13:45:18.627Z,1.95
2023-01-27T13:47:53.139Z,1.86
2023-01-27T13:50:27.290Z,1.92
2023-01-27T13:52:58.730Z,1.78
2023-01-27T13:55:41.988Z,1.92
2023-01-27T13:58:16.563Z,1.92
2023-01-27T14:00:51.730Z,2.10
2023-01-27T14:03:35.859Z,2.17
2023-01-27T14:06:20.759Z,2.16
2023-01-27T14:09:03.384Z,2.24
2023-01-27T14:11:38.826Z,2.20
2023-01-27T14:14:22.331Z,2.23
2023-01-27T14:17:05.987Z,2.19
2023-01-27T14:19:43.348Z,2.24
2023-01-27T14:22:20.494Z,2.12
2023-01-27T14:24:56.525Z,2.23
2023-01-27T14:27:33.066Z,2.27
2023-01-27T14:30:11.203Z,2.19
2023-01-27T14:32:46.993Z,2.27
2023-01-27T14:35:29.088Z,2.37
2023-01-27T14:38:08.265Z,2.33
2023-01-27T14:40:45.514Z,2.26
2023-01-27T14:43:21.928Z,2.29
2023-01-27T14:45:54.006Z,2.27
2023-01-27T14:48:49.039Z,2.12
2023-01-27T14:51:26.095Z,1.89
2023-01-27T14:54:09.758Z,1.92
2023-01-27T14:56:44.985Z,1.96
2023-01-27T14:59:26.451Z,1.86
2023-01-27T15:02:00.719Z,1.83
2023-01-27T15:04:44.462Z,1.89
2023-01-27T15:07:22.483Z,1.89
2023-01-27T15:10:06.733Z,1.83
2023-01-27T15:13:13.042Z,1.79
2023-01-27T15:16:19.701Z,1.82
2023-01-27T15:19:09.945Z,1.81
2023-01-27T15:22:06.247Z,1.78
2023-01-27T15:24:53.433Z,1.68
2023-01-27T15:27:21.233Z,1.72
2023-01-27T15:29:48.865Z,1.69
2023-01-27T15:32:37.190Z,1.65
2023-01-27T15:35:31.893Z,1.64
2023-01-27T15:38:08.772Z,1.64
2023-01-27T15:41:08.688Z,1.65
2023-01-27T15:43:44.313Z,1.65
2023-01-27T15:46:26.152Z,1.59
2023-01-27T15:48:55.584Z,1.54
2023-01-27T15:51:24.249Z,1.52
2023-01-27T15:53:55.025Z,1.58
2023-01-27T15:56:41.096Z,1.59
2023-01-27T15:59:15.042Z,1.48
2023-01-27T16:01:43.314Z,1.50
2023-01-27T16:04:17.838Z,1.41
2023-01-27T16:06:48.824Z,1.43
2023-01-27T16:09:24.806Z,1.31
2023-01-27T16:12:05.749Z,1.36
2023-01-27T16:14:45.797Z,1.34
2023-01-27T16:17:23.970Z,1.28
2023-01-27T16:20:19.715Z,1.28
2023-01-27T16:22:55.347Z,1.31
2023-01-27T16:25:29.094Z,1.28
2023-01-27T16:28:02.300Z,1.28
2023-01-27T16:30:32.249Z,1.20
2023-01-27T16:33:06.576Z,1.28
2023-01-27T16:35:44.176Z,1.30
2023-01-27T16:38:24.483Z,1.31
2023-01-27T16:40:55.691Z,1.38
2023-01-27T16:43:30.650Z,1.41
2023-01-27T16:46:02.891Z,1.43
2023-01-27T16:48:37.622Z,1.41
2023-01-27T16:51:19.586Z,1.43
2023-01-27T16:53:50.669Z,1.40
2023-01-27T16:56:26.865Z,1.34
2023-01-27T16:59:03.795Z,1.36
2023-01-27T17:01:40.324Z,1.37
2023-01-27T17:04:20.045Z,1.37
2023-01-27T17:06:53.803Z,1.43
2023-01-27T17:09:25.292Z,1.45
2023-01-27T17:11:56.145Z,1.40
2023-01-27T17:14:32.034Z,1.43
2023-01-27T17:17:03.449Z,1.41
2023-01-27T17:19:35.058Z,1.40
2023-01-27T17:22:10.950Z,1.41
2023-01-27T17:24:49.626Z,1.41
2023-01-27T17:27:24.565Z,1.50
2023-01-27T17:30:01.857Z,1.37
2023-01-27T17:32:35.109Z,1.28
2023-01-27T17:35:07.141Z,1.34
2023-01-27T17:37:45.775Z,1.44
2023-01-27T17:40:17.431Z,1.44
2023-01-27T17:42:49.847Z,1.44
2023-01-27T17:45:24.783Z,1.37
2023-01-27T17:47:54.321Z,1.51
2023-01-27T17:50:25.910Z,1.45
2023-01-27T17:52:57.229Z,1.45
2023-01-27T17:55:26.685Z,1.43
2023-01-27T17:58:02.538Z,1.40
2023-01-27T18:00:41.119Z,1.47
2023-01-27T18:03:16.924Z,1.51
2023-01-27T18:05:46.065Z,1.47
2023-01-27T18:08:19.544Z,1.44
2023-01-27T18:10:47.190Z,1.45
2023-01-27T18:13:35.202Z,1.52
2023-01-27T18:16:07.211Z,1.43
2023-01-27T18:18:36.489Z,1.47
2023-01-27T18:21:06.613Z,1.44
2023-01-27T18:23:37.795Z,1.45
2023-01-27T18:26:08.925Z,1.41
2023-01-27T18:28:38.270Z,1.40
2023-01-27T18:31:13.724Z,1.38
2023-01-27T18:33:42.998Z,1.36
2023-01-27T18:36:21.680Z,1.34
2023-01-27T18:38:51.141Z,1.37
2023-01-27T18:41:24.038Z,1.34
2023-01-27T18:43:51.880Z,1.30
2023-01-27T18:46:19.520Z,1.36
2023-01-27T18:48:47.375Z,1.34
2023-01-27T18:51:16.030Z,1.31
2023-01-27T18:53:43.463Z,1.31
2023-01-27T18:56:12.793Z,1.28
2023-01-27T18:58:40.373Z,1.17
2023-01-27T19:01:16.319Z,1.22
2023-01-27T19:03:43.765Z,1.26
2023-01-27T19:06:15.697Z,1.23
2023-01-27T19:08:43.648Z,1.26
2023-01-27T19:11:16.269Z,1.17
2023-01-27T19:13:44.284Z,1.09
2023-01-27T19:16:13.992Z,1.28
2023-01-27T19:18:42.476Z,1.26
2023-01-27T19:21:12.922Z,1.20
2023-01-27T19:23:44.702Z,1.17
2023-01-27T19:26:18.061Z,1.30
2023-01-27T19:28:47.280Z,1.22
2023-01-27T19:31:15.567Z,1.22
2023-01-27T19:33:45.097Z,1.20
2023-01-27T19:36:21.874Z,1.16
2023-01-27T19:38:49.808Z,1.16
2023-01-27T19:41:18.819Z,1.20
2023-01-27T19:43:50.193Z,1.17
2023-01-27T19:46:23.084Z,1.20
2023-01-27T19:48:50.720Z,1.15
2023-01-27T19:51:19.029Z,0.97
2023-01-27T19:53:46.803Z,0.95
2023-01-27T19:56:17.070Z,1.01
2023-01-27T19:58:50.111Z,0.96
2023-01-27T20:01:18.118Z,1.04
2023-01-27T20:03:45.655Z,1.09
2023-01-27T20:06:17.005Z,1.09
2023-01-27T20:08:45.148Z,1.10
2023-01-27T20:11:32.724Z,1.13
2023-01-27T20:14:02.444Z,1.15
2023-01-27T20:16:30.287Z,1.07
2023-01-27T20:18:58.201Z,1.17
2023-01-27T20:21:26.145Z,1.13
2023-01-27T20:23:54.147Z,1.13
2023-01-27T20:26:22.582Z,1.06
2023-01-27T20:28:51.752Z,1.06
2023-01-27T20:31:25.159Z,1.13
2023-01-27T20:33:53.003Z,0.99
2023-01-27T20:36:22.022Z,1.06
2023-01-27T20:38:50.413Z,1.00
2023-01-27T20:41:20.906Z,0.90
2023-01-27T20:43:55.634Z,0.99
2023-01-27T20:46:25.088Z,0.88
2023-01-27T20:48:52.892Z,0.95
2023-01-27T20:51:20.777Z,0.88
2023-01-27T20:53:48.135Z,0.85
2023-01-27T20:56:18.088Z,0.80
2023-01-27T20:58:46.087Z,0.75
2023-01-27T21:01:15.437Z,0.76
2023-01-27T21:03:44.995Z,0.88
2023-01-27T21:06:13.763Z,0.89
2023-01-27T21:08:42.916Z,0.85
2023-01-27T21:11:12.930Z,0.69
2023-01-27T21:13:40.753Z,0.72
2023-01-27T21:16:08.474Z,0.85
2023-01-27T21:18:36.248Z,0.72
2023-01-27T21:21:05.774Z,0.73
2023-01-27T21:23:34.451Z,0.72
2023-01-27T21:26:05.411Z,0.72
2023-01-27T21:28:33.990Z,0.72
2023-01-27T21:31:06.337Z,0.73
2023-01-27T21:33:35.017Z,0.79
2023-01-27T21:36:02.437Z,0.79
2023-01-27T21:38:31.819Z,0.69
2023-01-27T21:41:04.513Z,0.80
2023-01-27T21:43:50.947Z,0.82
2023-01-27T21:46:18.573Z,0.73
2023-01-27T21:48:45.824Z,0.79
2023-01-27T21:51:13.737Z,0.69
2023-01-27T21:53:42.701Z,0.68
2023-01-27T21:56:11.189Z,0.68
2023-01-27T21:58:39.676Z,0.61
2023-01-27T22:01:08.128Z,0.59
2023-01-27T22:03:37.414Z,0.68
2023-01-27T22:06:05.907Z,0.64
2023-01-27T22:08:33.425Z,0.72
2023-01-27T22:11:06.281Z,0.76
2023-01-27T22:13:34.232Z,0.73
2023-01-27T22:16:01.685Z,0.73
2023-01-27T22:18:29.383Z,0.70
2023-01-27T22:20:56.947Z,0.69
2023-01-27T22:23:24.754Z,0.70
2023-01-27T22:25:53.340Z,0.69
2023-01-27T22:28:24.263Z,0.62
2023-01-27T22:30:51.762Z,0.58
2023-01-27T22:33:19.516Z,0.61
2023-01-27T22:35:46.783Z,0.69
2023-01-27T22:38:13.971Z,0.65
2023-01-27T22:40:41.328Z,0.62
2023-01-27T22:43:10.566Z,0.68
2023-01-27T22:45:40.565Z,0.86
2023-01-27T22:48:09.112Z,0.89
2023-01-27T22:50:36.674Z,0.82
2023-01-27T22:53:05.527Z,0.88
2023-01-27T22:55:33.168Z,0.82
2023-01-27T22:58:00.570Z,0.78
2023-01-27T23:00:28.346Z,0.90
2023-01-27T23:02:57.177Z,0.90
2023-01-27T23:05:24.583Z,0.93
2023-01-27T23:07:51.912Z,0.86
2023-01-27T23:10:19.816Z,0.89
2023-01-27T23:12:47.407Z,0.96
2023-01-27T23:15:15.308Z,0.97
2023-01-27T23:17:42.781Z,1.04
2023-01-27T23:20:12.849Z,0.95
2023-01-27T23:22:40.600Z,1.03
2023-01-27T23:25:09.297Z,1.10
2023-01-27T23:27:36.565Z,1.07
2023-01-27T23:30:04.911Z,1.07
2023-01-27T23:32:32.172Z,1.00
2023-01-27T23:34:59.481Z,0.99
2023-01-27T23:37:28.250Z,1.07
2023-01-27T23:39:55.788Z,1.01
2023-01-27T23:42:23.081Z,0.88
2023-01-27T23:44:50.361Z,0.96
2023-01-27T23:47:17.607Z,0.96
2023-01-27T23:49:46.518Z,0.83
2023-01-27T23:52:13.927Z,0.80
2023-01-27T23:54:42.606Z,0.80
2023-01-27T23:57:10.129Z,0.73
2023-01-27T23:59:37.511Z,0.82
